SBBU

Bauru Airport

Airport
ICAO code
SBBU
IATA Code
BAU
Summary
ICAO Region
CARSAM
ICAO Territory
Location

Bauru, Sao Paulo

Serving
Bauru
Elevation
2025 ft
Coordinates
22° 20' 37" S , 49° 3' 14" W
KCC
Metar
SBBU 142300Z 15005KT 5000 -RA BR FEW023 24/24 Q1016

Comte. João Ribeiro de Barros Airport is an airport serving Bauru, Brazil.

Climatology

Humid subtropical climate (Köppen climate classification Cwa)

Runways

Designator Length Width Surface Rops
14/32 1501 35 ASP No/No

Airport map

Aerial View

SKYbrary Partners:

Safety knowledge contributed by: